createdAt,value
2022-09-18T00:01:39.610Z,99730.61
2022-09-18T00:04:09.230Z,99732.81
2022-09-18T00:06:41.294Z,99732.98
2022-09-18T00:09:12.483Z,99735.71
2022-09-18T00:11:43.912Z,99730.10
2022-09-18T00:14:15.077Z,99727.34
2022-09-18T00:16:43.396Z,99724.98
2022-09-18T00:19:12.456Z,99724.67
2022-09-18T00:21:43.146Z,99723.54
2022-09-18T00:24:11.808Z,99721.97
2022-09-18T00:26:40.658Z,99721.45
2022-09-18T00:29:08.720Z,99721.70
2022-09-18T00:31:37.424Z,99725.55
2022-09-18T00:34:08.877Z,99723.81
2022-09-18T00:36:39.131Z,99725.31
2022-09-18T00:39:08.108Z,99728.52
2022-09-18T00:41:39.036Z,99725.16
2022-09-18T00:44:44.687Z,99726.48
2022-09-18T00:47:12.587Z,99724.67
2022-09-18T00:49:52.810Z,99723.60
2022-09-18T00:52:23.987Z,99720.83
2022-09-18T00:54:58.685Z,99721.92
2022-09-18T00:57:33.012Z,99718.50
2022-09-18T01:00:04.347Z,99719.92
2022-09-18T01:02:32.786Z,99717.02
2022-09-18T01:05:00.803Z,99716.45
2022-09-18T01:07:50.798Z,99713.80
2022-09-18T01:10:21.489Z,99708.23
2022-09-18T01:12:57.349Z,99700.85
2022-09-18T01:15:31.118Z,99701.59
2022-09-18T01:18:00.104Z,99700.64
2022-09-18T01:20:49.109Z,99698.58
2022-09-18T01:23:23.280Z,99698.84
2022-09-18T01:26:09.325Z,99695.40
2022-09-18T01:28:43.994Z,99694.30
2022-09-18T01:31:20.425Z,99694.30
2022-09-18T01:34:04.392Z,99690.90
2022-09-18T01:36:37.614Z,99694.98
2022-09-18T01:39:15.091Z,99690.27
2022-09-18T01:41:50.929Z,99696.32
2022-09-18T01:44:31.619Z,99701.04
2022-09-18T01:47:09.506Z,99698.55
2022-09-18T01:49:43.316Z,99695.35
2022-09-18T01:52:17.980Z,99702.83
2022-09-18T01:54:50.429Z,99702.32
2022-09-18T01:57:28.447Z,99703.70
2022-09-18T01:59:59.234Z,99706.34
2022-09-18T02:02:34.016Z,99702.79
2022-09-18T02:05:07.682Z,99705.02
2022-09-18T02:07:40.023Z,99695.41
2022-09-18T02:10:08.402Z,99699.02
2022-09-18T02:12:41.240Z,99699.98
2022-09-18T02:15:13.515Z,99699.73
2022-09-18T02:17:59.238Z,99695.62
2022-09-18T02:20:38.141Z,99693.98
2022-09-18T02:23:08.450Z,99696.59
2022-09-18T02:25:52.207Z,99700.61
2022-09-18T02:28:23.415Z,99696.14
2022-09-18T02:30:51.804Z,99695.75
2022-09-18T02:33:34.488Z,99697.60
2022-09-18T02:36:11.906Z,99694.90
2022-09-18T02:38:58.651Z,99691.57
2022-09-18T02:41:53.333Z,99693.04
2022-09-18T02:44:48.709Z,99686.00
2022-09-18T02:47:59.183Z,99682.80
2022-09-18T02:50:49.545Z,99681.29
2022-09-18T02:53:17.365Z,99681.85
2022-09-18T02:56:02.624Z,99680.17
2022-09-18T02:58:48.948Z,99686.57
2022-09-18T03:01:19.639Z,99686.81
2022-09-18T03:03:48.078Z,99688.90
2022-09-18T03:06:18.449Z,99687.92
2022-09-18T03:08:47.265Z,99687.63
2022-09-18T03:11:15.231Z,99686.86
2022-09-18T03:13:45.016Z,99684.06
2022-09-18T03:16:13.277Z,99691.85
2022-09-18T03:18:43.725Z,99692.31
2022-09-18T03:21:11.556Z,99694.23
2022-09-18T03:23:43.474Z,99700.60
2022-09-18T03:26:20.844Z,99701.38
2022-09-18T03:28:49.211Z,99703.58
2022-09-18T03:31:17.868Z,99704.55
2022-09-18T03:33:46.910Z,99699.98
2022-09-18T03:36:15.159Z,99698.52
2022-09-18T03:38:43.218Z,99701.33
2022-09-18T03:41:12.220Z,99698.30
2022-09-18T03:43:42.078Z,99698.38
2022-09-18T03:46:12.281Z,99703.52
2022-09-18T03:48:40.290Z,99700.20
2022-09-18T03:51:09.056Z,99699.04
2022-09-18T03:53:36.963Z,99697.71
2022-09-18T03:56:23.491Z,99694.80
2022-09-18T03:59:07.647Z,99696.04
2022-09-18T04:01:54.224Z,99698.21
2022-09-18T04:04:29.242Z,99703.45
2022-09-18T04:07:09.355Z,99704.04
2022-09-18T04:10:01.626Z,99701.83
2022-09-18T04:12:29.678Z,99700.25
2022-09-18T04:15:17.252Z,99700.30
2022-09-18T04:17:45.700Z,99700.15
2022-09-18T04:20:14.815Z,99705.07
2022-09-18T04:22:43.601Z,99701.30
2022-09-18T04:25:12.745Z,99703.57
2022-09-18T04:27:40.985Z,99703.83
2022-09-18T04:30:09.962Z,99699.05
2022-09-18T04:32:40.560Z,99700.58
2022-09-18T04:35:08.664Z,99699.85
2022-09-18T04:37:37.288Z,99701.05
2022-09-18T04:40:06.756Z,99692.66
2022-09-18T04:42:34.997Z,99697.52
2022-09-18T04:45:04.028Z,99692.89
2022-09-18T04:47:31.957Z,99694.44
2022-09-18T04:49:59.828Z,99695.06
2022-09-18T04:52:28.903Z,99698.33
2022-09-18T04:54:57.127Z,99698.27
2022-09-18T04:57:25.365Z,99698.80
2022-09-18T04:59:53.667Z,99696.37
2022-09-18T05:02:21.899Z,99699.66
2022-09-18T05:04:52.913Z,99701.84
2022-09-18T05:07:31.322Z,99699.85
2022-09-18T05:09:59.276Z,99701.92
2022-09-18T05:12:28.337Z,99699.87
2022-09-18T05:14:56.250Z,99700.61
2022-09-18T05:17:25.469Z,99700.41
2022-09-18T05:20:02.032Z,99701.54
2022-09-18T05:22:36.919Z,99700.77
2022-09-18T05:25:05.676Z,99697.70
2022-09-18T05:27:34.290Z,99701.86
2022-09-18T05:30:02.382Z,99701.05
2022-09-18T05:32:58.738Z,99701.45
2022-09-18T05:35:29.740Z,99699.79
2022-09-18T05:37:59.812Z,99699.77
2022-09-18T05:40:31.531Z,99699.84
2022-09-18T05:43:03.063Z,99701.56
2022-09-18T05:45:33.601Z,99699.58
2022-09-18T05:48:05.785Z,99699.85
2022-09-18T05:50:36.701Z,99700.18
2022-09-18T05:53:08.392Z,99700.20
2022-09-18T05:55:56.505Z,99701.37
2022-09-18T05:58:25.400Z,99702.15
2022-09-18T06:00:57.842Z,99701.67
2022-09-18T06:03:27.570Z,99703.52
2022-09-18T06:05:55.401Z,99706.11
2022-09-18T06:08:23.579Z,99710.90
2022-09-18T06:10:52.409Z,99715.02
2022-09-18T06:13:20.446Z,99713.70
2022-09-18T06:15:54.537Z,99714.62
2022-09-18T06:18:37.024Z,99716.56
2022-09-18T06:21:05.418Z,99715.61
2022-09-18T06:23:33.790Z,99718.27
2022-09-18T06:26:14.563Z,99719.89
2022-09-18T06:28:43.203Z,99720.63
2022-09-18T06:31:11.332Z,99720.77
2022-09-18T06:33:52.523Z,99722.05
2022-09-18T06:36:20.443Z,99726.77
2022-09-18T06:39:10.955Z,99720.52
2022-09-18T06:41:38.993Z,99718.20
2022-09-18T06:44:17.556Z,99712.98
2022-09-18T06:46:49.758Z,99716.84
2022-09-18T06:49:25.799Z,99715.63
2022-09-18T06:51:54.176Z,99710.48
2022-09-18T06:54:22.093Z,99707.74
2022-09-18T06:56:50.267Z,99707.30
2022-09-18T06:59:19.546Z,99710.11
2022-09-18T07:01:48.944Z,99712.45
2022-09-18T07:04:21.610Z,99709.27
2022-09-18T07:06:49.415Z,99711.25
2022-09-18T07:09:17.704Z,99709.55
2022-09-18T07:12:06.146Z,99716.14
2022-09-18T07:14:41.329Z,99717.08
2022-09-18T07:17:17.669Z,99725.11
2022-09-18T07:19:47.319Z,99724.48
2022-09-18T07:22:16.878Z,99724.88
2022-09-18T07:24:47.303Z,99732.02
2022-09-18T07:27:15.260Z,99731.50
2022-09-18T07:29:44.061Z,99730.30
2022-09-18T07:32:14.473Z,99729.34
2022-09-18T07:34:44.767Z,99728.39
2022-09-18T07:37:14.556Z,99733.27
2022-09-18T07:39:45.296Z,99732.08
2022-09-18T07:42:33.432Z,99732.56
2022-09-18T07:45:02.218Z,99731.41
2022-09-18T07:47:30.593Z,99735.54
2022-09-18T07:50:00.518Z,99736.16
2022-09-18T07:52:28.782Z,99735.40
2022-09-18T07:54:57.819Z,99736.79
2022-09-18T07:57:31.837Z,99741.07
2022-09-18T08:00:15.966Z,99741.79
2022-09-18T08:02:44.028Z,99743.25
2022-09-18T08:05:20.466Z,99744.29
2022-09-18T08:07:54.190Z,99739.03
2022-09-18T08:10:36.846Z,99747.04
2022-09-18T08:13:32.319Z,99741.97
2022-09-18T08:16:21.891Z,99748.66
2022-09-18T08:19:13.289Z,99745.29
2022-09-18T08:21:52.437Z,99747.56
2022-09-18T08:24:20.454Z,99745.84
2022-09-18T08:26:48.323Z,99751.38
2022-09-18T08:29:19.380Z,99750.80
2022-09-18T08:32:09.963Z,99752.17
2022-09-18T08:34:39.217Z,99750.29
2022-09-18T08:37:07.081Z,99753.85
2022-09-18T08:39:53.762Z,99751.68
2022-09-18T08:43:02.136Z,99744.66
2022-09-18T08:46:08.102Z,99749.92
2022-09-18T08:48:55.919Z,99748.56
2022-09-18T08:51:49.886Z,99756.69
2022-09-18T08:54:39.130Z,99758.48
2022-09-18T08:57:37.908Z,99759.52
2022-09-18T09:00:24.137Z,99760.42
2022-09-18T09:03:30.707Z,99762.10
2022-09-18T09:06:07.489Z,99765.55
2022-09-18T09:08:55.137Z,99762.73
2022-09-18T09:11:40.361Z,99758.69
2022-09-18T09:14:39.725Z,99763.96
2022-09-18T09:17:28.688Z,99767.30
2022-09-18T09:20:12.439Z,99767.10
2022-09-18T09:22:54.393Z,99766.70
2022-09-18T09:25:40.551Z,99767.65
2022-09-18T09:28:29.102Z,99766.70
2022-09-18T09:31:46.288Z,99779.89
2022-09-18T09:34:44.734Z,99781.33
2022-09-18T09:37:38.734Z,99783.10
2022-09-18T09:40:14.183Z,99782.46
2022-09-18T09:42:56.854Z,99788.42
2022-09-18T09:45:30.578Z,99790.91
2022-09-18T09:48:21.704Z,99793.09
2022-09-18T09:51:08.692Z,99793.21
2022-09-18T09:53:36.681Z,99792.39
2022-09-18T09:56:20.300Z,99795.44
2022-09-18T09:58:55.889Z,99793.98
2022-09-18T10:01:45.902Z,99794.08
2022-09-18T10:04:46.822Z,99796.14
2022-09-18T10:07:23.671Z,99800.02
2022-09-18T10:10:06.725Z,99805.65
2022-09-18T10:12:52.545Z,99807.86
2022-09-18T10:15:47.135Z,99809.13
2022-09-18T10:18:27.125Z,99813.98
2022-09-18T10:21:12.545Z,99819.94
2022-09-18T10:23:43.411Z,99821.23
2022-09-18T10:26:18.153Z,99826.02
2022-09-18T10:28:46.165Z,99832.09
2022-09-18T10:31:14.795Z,99835.14
2022-09-18T10:33:50.236Z,99836.20
2022-09-18T10:36:43.434Z,99841.70
2022-09-18T10:39:33.733Z,99846.70
2022-09-18T10:42:16.872Z,99853.17
2022-09-18T10:44:49.661Z,99849.23
2022-09-18T10:47:25.797Z,99850.85
2022-09-18T10:50:10.472Z,99852.29
2022-09-18T10:52:44.422Z,99851.23
2022-09-18T10:55:26.027Z,99853.41
2022-09-18T10:58:28.963Z,99854.23
2022-09-18T11:01:02.804Z,99860.33
2022-09-18T11:04:02.181Z,99855.86
2022-09-18T11:06:36.085Z,99856.18
2022-09-18T11:09:37.261Z,99862.63
2022-09-18T11:12:12.747Z,99860.45
2022-09-18T11:14:46.068Z,99860.67
2022-09-18T11:17:31.994Z,99861.04
2022-09-18T11:20:03.790Z,99859.12
2022-09-18T11:22:44.728Z,99860.36
2022-09-18T11:25:42.093Z,99863.84
2022-09-18T11:28:28.282Z,99858.48
2022-09-18T11:31:11.884Z,99858.59
2022-09-18T11:33:50.645Z,99860.36
2022-09-18T11:36:29.326Z,99853.33
2022-09-18T11:39:00.438Z,99863.67
2022-09-18T11:41:37.261Z,99855.59
2022-09-18T11:44:12.503Z,99852.91
2022-09-18T11:46:54.090Z,99854.23
2022-09-18T11:49:35.282Z,99854.73
2022-09-18T11:52:14.242Z,99857.27
2022-09-18T11:55:14.359Z,99855.64
2022-09-18T11:57:48.218Z,99854.45
2022-09-18T12:00:20.797Z,99857.71
2022-09-18T12:03:13.505Z,99853.48
2022-09-18T12:06:16.939Z,99853.79
2022-09-18T12:08:55.133Z,99848.09
2022-09-18T12:11:30.190Z,99850.82
2022-09-18T12:14:09.871Z,99840.44
2022-09-18T12:16:46.034Z,99840.88
2022-09-18T12:19:34.610Z,99842.77
2022-09-18T12:22:29.498Z,99838.10
2022-09-18T12:24:58.231Z,99838.52
2022-09-18T12:27:54.833Z,99841.77
2022-09-18T12:30:33.452Z,99841.70
2022-09-18T12:33:35.643Z,99846.33
2022-09-18T12:36:29.186Z,99840.91
2022-09-18T12:39:18.576Z,99842.43
2022-09-18T12:42:17.458Z,99833.15
2022-09-18T12:45:23.938Z,99826.27
2022-09-18T12:48:25.646Z,99825.36
2022-09-18T12:51:20.956Z,99820.81
2022-09-18T12:54:12.846Z,99827.16
2022-09-18T12:56:46.793Z,99831.48
2022-09-18T12:59:36.685Z,99836.35
2022-09-18T13:02:31.779Z,99831.20
2022-09-18T13:05:25.703Z,99830.73
2022-09-18T13:08:05.662Z,99831.52
2022-09-18T13:10:39.473Z,99824.15
2022-09-18T13:13:37.886Z,99826.05
2022-09-18T13:16:08.368Z,99823.09
2022-09-18T13:18:50.279Z,99825.17
2022-09-18T13:21:27.797Z,99823.98
2022-09-18T13:23:57.631Z,99826.33
2022-09-18T13:26:30.696Z,99827.91
2022-09-18T13:28:59.305Z,99826.05
2022-09-18T13:31:28.506Z,99829.20
2022-09-18T13:33:56.421Z,99832.36
2022-09-18T13:36:30.978Z,99834.17
2022-09-18T13:39:03.505Z,99831.30
2022-09-18T13:42:01.845Z,99832.94
2022-09-18T13:44:38.069Z,99832.20
2022-09-18T13:47:11.137Z,99833.01
2022-09-18T13:49:50.504Z,99832.06
2022-09-18T13:52:33.375Z,99834.42
2022-09-18T13:55:13.661Z,99830.38
2022-09-18T13:57:43.515Z,99830.66
2022-09-18T14:00:20.476Z,99828.93
2022-09-18T14:03:12.140Z,99822.34
2022-09-18T14:05:42.342Z,99823.61
2022-09-18T14:08:35.329Z,99823.98
2022-09-18T14:11:15.543Z,99825.67
2022-09-18T14:13:54.673Z,99827.36
2022-09-18T14:16:23.913Z,99827.44
2022-09-18T14:19:01.289Z,99824.31
2022-09-18T14:21:43.858Z,99824.29
2022-09-18T14:24:38.208Z,99825.14
2022-09-18T14:27:31.409Z,99829.78
2022-09-18T14:30:02.798Z,99823.66
2022-09-18T14:32:31.725Z,99817.98
2022-09-18T14:35:53.715Z,99820.95
2022-09-18T14:38:34.118Z,99824.75
2022-09-18T14:41:09.248Z,99825.08
2022-09-18T14:43:39.642Z,99821.46
2022-09-18T14:46:18.500Z,99818.46
2022-09-18T14:48:46.494Z,99823.02
2022-09-18T14:51:27.117Z,99819.21
2022-09-18T14:53:57.532Z,99822.04
2022-09-18T14:56:37.185Z,99817.70
2022-09-18T14:59:08.513Z,99820.79
2022-09-18T15:01:38.257Z,99818.20
2022-09-18T15:04:13.868Z,99814.71
2022-09-18T15:06:53.847Z,99819.27
2022-09-18T15:09:29.686Z,99815.98
2022-09-18T15:12:04.992Z,99819.58
2022-09-18T15:14:45.691Z,99821.59
2022-09-18T15:17:23.413Z,99824.01
2022-09-18T15:20:00.104Z,99830.12
2022-09-18T15:22:29.800Z,99824.23
2022-09-18T15:25:00.960Z,99826.33
2022-09-18T15:27:31.701Z,99826.11
2022-09-18T15:30:04.804Z,99825.44
2022-09-18T15:32:38.752Z,99837.85
2022-09-18T15:35:14.938Z,99851.03
2022-09-18T15:38:00.871Z,99851.19
2022-09-18T15:40:37.376Z,99847.77
2022-09-18T15:43:32.217Z,99849.79
2022-09-18T15:46:06.081Z,99851.71
2022-09-18T15:48:40.032Z,99851.22
2022-09-18T15:51:26.310Z,99849.88
2022-09-18T15:54:13.277Z,99847.61
2022-09-18T15:56:54.276Z,99847.83
2022-09-18T15:59:40.731Z,99841.36
2022-09-18T16:02:35.199Z,99843.83
2022-09-18T16:05:15.316Z,99843.42
2022-09-18T16:07:53.248Z,99846.47
2022-09-18T16:10:41.116Z,99846.46
2022-09-18T16:13:11.863Z,99841.64
2022-09-18T16:15:41.031Z,99844.96
2022-09-18T16:18:27.436Z,99844.26
2022-09-18T16:20:55.275Z,99849.94
2022-09-18T16:23:50.790Z,99853.21
2022-09-18T16:26:24.825Z,99846.95
2022-09-18T16:28:56.163Z,99852.91
2022-09-18T16:31:27.084Z,99849.87
2022-09-18T16:34:04.679Z,99851.74
2022-09-18T16:36:41.494Z,99848.91
2022-09-18T16:39:15.165Z,99854.23
2022-09-18T16:41:43.893Z,99849.39
2022-09-18T16:44:13.782Z,99846.57
2022-09-18T16:46:46.551Z,99856.17
2022-09-18T16:49:18.816Z,99859.09
2022-09-18T16:51:46.718Z,99861.61
2022-09-18T16:54:14.583Z,99865.67
2022-09-18T16:56:51.677Z,99865.75
2022-09-18T16:59:21.887Z,99862.55
2022-09-18T17:02:03.261Z,99861.58
2022-09-18T17:04:32.499Z,99859.26
2022-09-18T17:07:01.252Z,99856.95
2022-09-18T17:09:29.406Z,99857.71
2022-09-18T17:11:57.277Z,99856.73
2022-09-18T17:14:25.225Z,99859.40
2022-09-18T17:16:53.229Z,99857.27
2022-09-18T17:19:21.505Z,99860.21
2022-09-18T17:21:50.298Z,99862.80
2022-09-18T17:24:24.115Z,99861.36
2022-09-18T17:26:54.102Z,99861.99
2022-09-18T17:29:22.255Z,99867.63
2022-09-18T17:31:50.540Z,99871.91
2022-09-18T17:34:19.103Z,99875.21
2022-09-18T17:36:46.930Z,99874.38
2022-09-18T17:39:17.083Z,99877.09
2022-09-18T17:41:46.032Z,99881.51
2022-09-18T17:44:15.341Z,99875.95
2022-09-18T17:46:43.227Z,99882.55
2022-09-18T17:49:11.168Z,99880.37
2022-09-18T17:51:39.148Z,99880.46
2022-09-18T17:54:07.012Z,99880.25
2022-09-18T17:56:35.178Z,99880.91
2022-09-18T17:59:06.471Z,99880.33
2022-09-18T18:01:38.304Z,99881.44
2022-09-18T18:04:07.202Z,99882.27
2022-09-18T18:06:36.997Z,99879.80
2022-09-18T18:09:07.436Z,99877.95
2022-09-18T18:11:35.795Z,99877.50
2022-09-18T18:14:05.419Z,99874.04
2022-09-18T18:16:34.512Z,99877.79
2022-09-18T18:19:06.264Z,99879.55
2022-09-18T18:21:34.909Z,99882.00
2022-09-18T18:24:06.292Z,99880.64
2022-09-18T18:26:34.356Z,99877.30
2022-09-18T18:29:02.523Z,99878.13
2022-09-18T18:31:31.231Z,99877.23
2022-09-18T18:33:59.560Z,99878.00
2022-09-18T18:36:29.935Z,99879.19
2022-09-18T18:38:59.751Z,99879.77
2022-09-18T18:41:30.293Z,99881.60
2022-09-18T18:44:02.057Z,99884.27
2022-09-18T18:46:35.966Z,99884.68
2022-09-18T18:49:09.193Z,99885.83
2022-09-18T18:51:47.390Z,99882.88
2022-09-18T18:54:18.049Z,99883.52
2022-09-18T18:56:47.160Z,99883.39
2022-09-18T18:59:17.486Z,99879.72
2022-09-18T19:01:45.816Z,99883.35
2022-09-18T19:04:19.065Z,99882.09
2022-09-18T19:06:49.224Z,99883.01
2022-09-18T19:09:26.185Z,99881.42
2022-09-18T19:11:54.265Z,99878.25
2022-09-18T19:14:25.274Z,99878.19
2022-09-18T19:16:54.929Z,99876.48
2022-09-18T19:19:25.279Z,99872.80
2022-09-18T19:21:53.569Z,99877.02
2022-09-18T19:24:21.567Z,99878.51
2022-09-18T19:26:49.748Z,99881.08
2022-09-18T19:29:19.380Z,99884.69
2022-09-18T19:31:48.257Z,99880.14
2022-09-18T19:34:19.373Z,99881.48
2022-09-18T19:36:50.157Z,99881.81
2022-09-18T19:39:21.115Z,99883.95
2022-09-18T19:42:03.324Z,99885.97
2022-09-18T19:44:40.885Z,99884.59
2022-09-18T19:47:28.155Z,99883.91
2022-09-18T19:49:57.682Z,99883.39
2022-09-18T19:52:28.731Z,99884.89
2022-09-18T19:54:58.743Z,99886.56
2022-09-18T19:57:28.439Z,99885.26
2022-09-18T19:59:57.420Z,99881.24
2022-09-18T20:02:25.788Z,99883.42
2022-09-18T20:04:54.298Z,99881.25
2022-09-18T20:07:22.152Z,99882.73
2022-09-18T20:09:50.656Z,99881.81
2022-09-18T20:12:18.643Z,99883.89
2022-09-18T20:14:46.582Z,99883.48
2022-09-18T20:17:14.453Z,99886.63
2022-09-18T20:19:42.278Z,99887.34
2022-09-18T20:22:10.392Z,99884.66
2022-09-18T20:24:38.989Z,99886.87
2022-09-18T20:27:06.801Z,99883.16
2022-09-18T20:29:34.777Z,99883.83
2022-09-18T20:32:03.017Z,99882.77
2022-09-18T20:34:30.865Z,99884.85
2022-09-18T20:36:59.249Z,99887.23
2022-09-18T20:39:27.419Z,99885.77
2022-09-18T20:42:00.520Z,99886.53
2022-09-18T20:44:29.905Z,99881.98
2022-09-18T20:46:58.293Z,99884.98
2022-09-18T20:49:26.312Z,99882.19
2022-09-18T20:51:54.844Z,99885.17
2022-09-18T20:54:24.557Z,99884.55
2022-09-18T20:56:52.955Z,99884.39
2022-09-18T20:59:21.097Z,99882.21
2022-09-18T21:01:49.052Z,99886.62
2022-09-18T21:04:19.732Z,99888.39
2022-09-18T21:06:56.287Z,99886.85
2022-09-18T21:09:27.025Z,99888.13
2022-09-18T21:11:56.980Z,99889.85
2022-09-18T21:14:27.467Z,99886.91
2022-09-18T21:16:56.138Z,99893.01
2022-09-18T21:19:26.373Z,99892.56
2022-09-18T21:21:54.665Z,99891.42
2022-09-18T21:24:22.715Z,99894.52
2022-09-18T21:26:50.737Z,99894.63
2022-09-18T21:29:26.699Z,99891.96
2022-09-18T21:31:57.488Z,99899.79
2022-09-18T21:34:31.487Z,99897.48
2022-09-18T21:37:02.895Z,99896.30
2022-09-18T21:39:32.378Z,99895.34
2022-09-18T21:42:01.676Z,99895.34
2022-09-18T21:44:31.866Z,99893.25
2022-09-18T21:47:03.478Z,99894.59
2022-09-18T21:49:31.996Z,99889.77
2022-09-18T21:52:06.460Z,99887.45
2022-09-18T21:54:34.599Z,99888.00
2022-09-18T21:57:03.192Z,99889.40
2022-09-18T21:59:32.155Z,99888.84
2022-09-18T22:02:00.822Z,99887.31
2022-09-18T22:04:32.366Z,99889.73
2022-09-18T22:07:01.705Z,99886.30
2022-09-18T22:09:33.575Z,99884.83
2022-09-18T22:12:05.412Z,99888.20
2022-09-18T22:14:35.110Z,99888.30
2022-09-18T22:17:06.731Z,99885.85
2022-09-18T22:19:38.187Z,99880.18
2022-09-18T22:22:07.250Z,99887.98
2022-09-18T22:24:35.126Z,99890.60
2022-09-18T22:27:08.774Z,99885.71
2022-09-18T22:29:39.516Z,99888.48
2022-09-18T22:32:10.217Z,99892.45
2022-09-18T22:34:38.124Z,99894.09
2022-09-18T22:37:06.071Z,99897.30
2022-09-18T22:39:33.938Z,99900.56
2022-09-18T22:42:02.043Z,99901.32
2022-09-18T22:44:31.602Z,99899.05
2022-09-18T22:46:59.772Z,99896.96
2022-09-18T22:49:27.663Z,99898.80
2022-09-18T22:51:55.693Z,99900.93
2022-09-18T22:54:27.790Z,99902.43
2022-09-18T22:56:57.063Z,99904.06
2022-09-18T22:59:26.642Z,99901.91
2022-09-18T23:01:59.001Z,99904.91
2022-09-18T23:04:29.437Z,99904.23
2022-09-18T23:06:58.950Z,99905.58
2022-09-18T23:09:27.920Z,99902.59
2022-09-18T23:11:57.903Z,99894.39
2022-09-18T23:14:28.837Z,99901.45
2022-09-18T23:16:58.065Z,99901.23
2022-09-18T23:19:28.609Z,99900.62
2022-09-18T23:21:56.722Z,99902.73
2022-09-18T23:24:25.557Z,99902.80
2022-09-18T23:26:56.548Z,99906.63
2022-09-18T23:29:26.786Z,99904.69
2022-09-18T23:31:57.622Z,99908.12
2022-09-18T23:34:30.371Z,99908.96
2022-09-18T23:36:59.396Z,99906.02
2022-09-18T23:39:33.826Z,99906.11
2022-09-18T23:42:03.783Z,99906.64
2022-09-18T23:44:31.782Z,99909.91
2022-09-18T23:47:00.912Z,99909.77
2022-09-18T23:49:30.295Z,99908.09
2022-09-18T23:51:59.536Z,99913.58
2022-09-18T23:54:30.456Z,99909.95
2022-09-18T23:56:58.808Z,99907.89
2022-09-18T23:59:27.675Z,99910.23
